createdAt,value
2022-11-17T00:03:50.055Z,0.10
2022-11-17T00:08:53.541Z,0.10
2022-11-17T00:14:16.006Z,0.10
2022-11-17T00:19:36.300Z,0.00
2022-11-17T00:24:38.170Z,0.00
2022-11-17T00:29:40.124Z,0.00
2022-11-17T00:34:43.493Z,0.10
2022-11-17T00:39:45.242Z,0.10
2022-11-17T00:44:47.139Z,0.20
2022-11-17T00:49:48.944Z,0.10
2022-11-17T00:54:50.766Z,0.10
2022-11-17T00:59:52.636Z,0.10
2022-11-17T01:04:54.366Z,0.10
2022-11-17T01:09:56.111Z,0.10
2022-11-17T01:14:57.931Z,0.00
2022-11-17T01:19:59.710Z,0.10
2022-11-17T01:25:01.573Z,0.00
2022-11-17T01:30:04.066Z,-0.10
2022-11-17T01:35:06.370Z,0.00
2022-11-17T01:40:10.513Z,0.00
2022-11-17T01:45:24.425Z,-0.10
2022-11-17T01:50:39.175Z,-0.20
2022-11-17T01:56:02.792Z,-0.20
2022-11-17T02:01:04.864Z,-0.30
2022-11-17T02:06:18.520Z,-0.30
2022-11-17T02:11:21.346Z,-0.40
2022-11-17T02:16:23.073Z,-0.40
2022-11-17T02:21:36.933Z,-0.40
2022-11-17T02:26:44.429Z,-0.40
2022-11-17T02:32:01.259Z,-0.50
2022-11-17T02:37:26.489Z,-0.50
2022-11-17T02:42:57.351Z,-0.40
2022-11-17T02:48:01.590Z,-0.40
2022-11-17T02:53:03.972Z,-0.30
2022-11-17T02:58:13.844Z,-0.30
2022-11-17T03:03:18.454Z,-0.40
2022-11-17T03:08:48.257Z,-0.40
2022-11-17T03:13:52.020Z,-0.30
2022-11-17T03:19:26.538Z,-0.30
2022-11-17T03:24:35.869Z,-0.40
2022-11-17T03:29:43.161Z,-0.40
2022-11-17T03:34:50.862Z,-0.40
2022-11-17T03:40:01.629Z,-0.40
2022-11-17T03:45:20.817Z,-0.40
2022-11-17T03:50:30.307Z,-0.40
2022-11-17T03:55:44.069Z,-0.40
2022-11-17T04:00:49.462Z,-0.40
2022-11-17T04:05:51.393Z,-0.40
2022-11-17T04:11:11.781Z,-0.20
2022-11-17T04:16:13.630Z,-0.30
2022-11-17T04:21:15.394Z,-0.30
2022-11-17T04:26:35.887Z,-0.20
2022-11-17T04:31:37.638Z,-0.20
2022-11-17T04:36:44.806Z,-0.30
2022-11-17T04:41:57.292Z,-0.40
2022-11-17T04:46:59.461Z,-0.40
2022-11-17T04:52:01.685Z,-0.40
2022-11-17T04:57:03.578Z,-0.40
2022-11-17T05:02:06.291Z,-0.40
2022-11-17T05:07:09.085Z,-0.40
2022-11-17T05:12:29.538Z,-0.50
2022-11-17T05:17:31.561Z,-0.50
2022-11-17T05:22:51.962Z,-0.50
2022-11-17T05:27:53.710Z,-0.50
2022-11-17T05:32:55.441Z,-0.50
2022-11-17T05:37:57.134Z,-0.40
2022-11-17T05:42:58.920Z,-0.40
2022-11-17T05:48:00.664Z,-0.40
2022-11-17T05:53:02.486Z,-0.30
2022-11-17T05:58:20.517Z,-0.30
2022-11-17T06:03:38.001Z,-0.20
2022-11-17T06:08:40.033Z,-0.20
2022-11-17T06:13:41.767Z,-0.20
2022-11-17T06:18:51.967Z,-0.10
2022-11-17T06:23:53.858Z,-0.10
2022-11-17T06:28:56.706Z,0.00
2022-11-17T06:34:04.608Z,0.00
2022-11-17T06:39:06.359Z,0.00
2022-11-17T06:44:08.099Z,0.00
2022-11-17T06:49:09.900Z,0.10
2022-11-17T06:54:12.355Z,0.10
2022-11-17T06:59:15.955Z,0.10
2022-11-17T07:04:17.738Z,0.20
2022-11-17T07:09:20.123Z,0.10
2022-11-17T07:14:21.868Z,0.10
2022-11-17T07:19:23.581Z,0.20
2022-11-17T07:24:25.346Z,0.20
2022-11-17T07:29:28.911Z,0.30
2022-11-17T07:34:30.698Z,0.20
2022-11-17T07:39:32.427Z,0.30
2022-11-17T07:44:34.771Z,0.20
2022-11-17T07:49:36.612Z,0.20
2022-11-17T07:54:38.408Z,0.20
2022-11-17T07:59:40.126Z,0.20
2022-11-17T08:04:42.016Z,0.30
2022-11-17T08:09:43.746Z,0.30
2022-11-17T08:14:45.661Z,0.40
2022-11-17T08:19:47.468Z,0.30
2022-11-17T08:24:49.300Z,0.40
2022-11-17T08:29:51.103Z,0.40
2022-11-17T08:34:53.077Z,0.40
2022-11-17T08:39:55.008Z,0.60
2022-11-17T08:44:56.946Z,0.70
2022-11-17T08:49:58.848Z,0.80
2022-11-17T08:55:00.837Z,1.10
2022-11-17T09:00:02.966Z,1.20
2022-11-17T09:05:05.732Z,1.30
2022-11-17T09:10:10.904Z,1.60
2022-11-17T09:15:12.631Z,1.80
2022-11-17T09:20:16.154Z,1.70
2022-11-17T09:25:17.961Z,1.70
2022-11-17T09:30:22.201Z,1.60
2022-11-17T09:35:23.953Z,1.80
2022-11-17T09:40:26.122Z,2.00
2022-11-17T09:45:37.483Z,1.70
2022-11-17T09:50:40.872Z,1.80
2022-11-17T09:55:48.444Z,1.90
2022-11-17T10:00:52.758Z,1.90
2022-11-17T10:05:55.327Z,1.80
2022-11-17T10:10:57.036Z,1.90
2022-11-17T10:16:03.944Z,1.80
2022-11-17T10:21:07.290Z,2.00
2022-11-17T10:26:12.430Z,1.90
2022-11-17T10:31:17.167Z,2.10
2022-11-17T10:36:29.530Z,2.00
2022-11-17T10:41:45.239Z,1.90
2022-11-17T10:47:04.096Z,1.80
2022-11-17T10:52:15.419Z,1.80
2022-11-17T10:57:22.342Z,1.90
2022-11-17T11:02:34.429Z,2.00
2022-11-17T11:07:36.759Z,2.00
2022-11-17T11:12:44.730Z,2.00
2022-11-17T11:17:46.485Z,2.10
2022-11-17T11:23:03.029Z,2.00
2022-11-17T11:28:19.979Z,2.00
2022-11-17T11:33:42.974Z,2.00
2022-11-17T11:38:57.771Z,1.90
2022-11-17T11:44:02.297Z,2.00
2022-11-17T11:49:23.122Z,2.10
2022-11-17T11:54:32.690Z,2.10
2022-11-17T11:59:50.680Z,2.20
2022-11-17T12:05:04.157Z,2.20
2022-11-17T12:10:25.591Z,2.20
2022-11-17T12:15:27.418Z,2.20
2022-11-17T12:20:38.408Z,2.20
2022-11-17T12:25:53.261Z,2.20
2022-11-17T12:30:57.462Z,2.10
2022-11-17T12:36:30.190Z,2.10
2022-11-17T12:41:54.523Z,2.20
2022-11-17T12:47:09.484Z,2.10
2022-11-17T12:52:23.525Z,2.10
2022-11-17T12:57:32.531Z,2.00
2022-11-17T13:03:02.805Z,2.10
2022-11-17T13:08:13.705Z,2.20
2022-11-17T13:13:21.681Z,2.30
2022-11-17T13:18:35.590Z,2.40
2022-11-17T13:23:46.655Z,2.50
2022-11-17T13:29:03.157Z,2.50
2022-11-17T13:34:10.753Z,2.50
2022-11-17T13:39:19.672Z,2.50
2022-11-17T13:44:27.243Z,2.40
2022-11-17T13:49:36.163Z,2.50
2022-11-17T13:54:45.948Z,2.40
2022-11-17T13:59:48.517Z,2.30
2022-11-17T14:05:07.161Z,2.20
2022-11-17T14:10:15.121Z,2.20
2022-11-17T14:15:26.921Z,2.10
2022-11-17T14:20:34.555Z,2.00
2022-11-17T14:25:53.197Z,1.90
2022-11-17T14:30:57.093Z,1.90
2022-11-17T14:35:59.896Z,1.80
2022-11-17T14:41:01.614Z,1.90
2022-11-17T14:46:03.741Z,1.90
2022-11-17T14:51:05.722Z,1.90
2022-11-17T14:56:08.993Z,1.90
2022-11-17T15:01:17.318Z,2.00
2022-11-17T15:06:20.495Z,1.90
2022-11-17T15:11:23.455Z,2.00
2022-11-17T15:16:25.198Z,2.00
2022-11-17T15:21:27.039Z,2.00
2022-11-17T15:26:29.100Z,2.10
2022-11-17T15:31:30.863Z,2.10
2022-11-17T15:36:32.753Z,2.10
2022-11-17T15:41:35.324Z,2.10
2022-11-17T15:46:37.278Z,2.10
2022-11-17T15:51:39.096Z,2.20
2022-11-17T15:56:40.912Z,2.10
2022-11-17T16:01:43.088Z,2.10
2022-11-17T16:06:46.489Z,2.10
2022-11-17T16:11:48.362Z,2.00
2022-11-17T16:16:50.262Z,2.00
2022-11-17T16:21:51.954Z,1.90
2022-11-17T16:26:53.830Z,1.80
2022-11-17T16:31:55.666Z,1.80
2022-11-17T16:36:57.574Z,1.70
2022-11-17T16:42:00.211Z,1.60
2022-11-17T16:47:02.075Z,1.60
2022-11-17T16:52:03.827Z,1.50
2022-11-17T16:57:05.555Z,1.50
2022-11-17T17:02:07.321Z,1.30
2022-11-17T17:07:09.104Z,1.30
2022-11-17T17:12:11.070Z,1.30
2022-11-17T17:17:13.304Z,1.30
2022-11-17T17:22:15.084Z,1.30
2022-11-17T17:27:16.896Z,1.20
2022-11-17T17:32:18.755Z,1.10
2022-11-17T17:37:20.705Z,1.00
2022-11-17T17:42:22.400Z,0.90
2022-11-17T17:47:24.346Z,0.90
2022-11-17T17:52:26.074Z,0.90
2022-11-17T17:57:32.706Z,0.90
2022-11-17T18:02:36.332Z,0.80
2022-11-17T18:07:38.191Z,0.70
2022-11-17T18:12:40.157Z,0.70
2022-11-17T18:17:41.982Z,0.70
2022-11-17T18:22:43.742Z,0.60
2022-11-17T18:27:45.562Z,0.50
2022-11-17T18:32:47.480Z,0.60
2022-11-17T18:37:49.225Z,0.50
2022-11-17T18:42:51.241Z,0.60
2022-11-17T18:47:52.994Z,0.50
2022-11-17T18:52:54.912Z,0.50
2022-11-17T18:57:56.747Z,0.40
2022-11-17T19:02:58.959Z,0.40
2022-11-17T19:08:00.938Z,0.30
2022-11-17T19:13:04.728Z,0.20
2022-11-17T19:18:06.509Z,0.20
2022-11-17T19:23:08.308Z,0.40
2022-11-17T19:28:13.545Z,0.50
2022-11-17T19:33:15.286Z,0.60
2022-11-17T19:38:17.033Z,0.50
2022-11-17T19:43:19.278Z,0.60
2022-11-17T19:48:21.175Z,0.50
2022-11-17T19:53:23.582Z,0.60
2022-11-17T19:58:25.531Z,0.60
2022-11-17T20:03:27.606Z,0.60
2022-11-17T20:08:30.279Z,0.80
2022-11-17T20:13:32.753Z,0.90
2022-11-17T20:18:34.644Z,0.90
2022-11-17T20:23:38.008Z,1.00
2022-11-17T20:28:40.594Z,1.00
2022-11-17T20:33:43.453Z,1.00
2022-11-17T20:38:45.927Z,1.00
2022-11-17T20:43:49.281Z,0.90
2022-11-17T20:48:52.194Z,0.80
2022-11-17T20:53:54.052Z,0.80
2022-11-17T20:58:55.941Z,0.80
2022-11-17T21:03:58.066Z,0.80
2022-11-17T21:08:59.945Z,0.80
2022-11-17T21:14:02.310Z,0.90
2022-11-17T21:19:04.522Z,0.80
2022-11-17T21:24:06.686Z,0.80
2022-11-17T21:29:08.744Z,0.90
2022-11-17T21:34:17.268Z,0.90
2022-11-17T21:39:19.758Z,0.90
2022-11-17T21:44:22.286Z,1.00
2022-11-17T21:49:24.002Z,1.00
2022-11-17T21:54:25.706Z,0.90
2022-11-17T21:59:27.503Z,1.00
2022-11-17T22:04:29.336Z,0.90
2022-11-17T22:09:31.252Z,0.90
2022-11-17T22:14:32.970Z,1.00
2022-11-17T22:19:34.857Z,0.90
2022-11-17T22:24:39.560Z,0.90
2022-11-17T22:29:41.569Z,0.90
2022-11-17T22:34:43.360Z,0.90
2022-11-17T22:39:45.616Z,0.90
2022-11-17T22:44:47.512Z,0.90
2022-11-17T22:49:49.191Z,0.90
2022-11-17T22:54:51.019Z,0.90
2022-11-17T22:59:52.840Z,0.90
2022-11-17T23:04:54.652Z,0.90
2022-11-17T23:09:56.363Z,0.90
2022-11-17T23:14:58.191Z,0.90
2022-11-17T23:20:00.444Z,0.80
2022-11-17T23:25:02.653Z,0.90
2022-11-17T23:30:04.811Z,0.90
2022-11-17T23:35:06.969Z,0.90
2022-11-17T23:40:09.558Z,0.90
2022-11-17T23:45:12.781Z,0.90
2022-11-17T23:50:14.583Z,0.90
2022-11-17T23:55:16.346Z,0.90
